sensor_id;sensor_type;location;lat;lon;timestamp;P1;durP1;ratioP1;P2;durP2;ratioP2
4096;SDS011;2062;50.694;7.246;2023-07-31T00:00:13;6.57;;;1.93;;
4096;SDS011;2062;50.694;7.246;2023-07-31T00:02:40;6.38;;;2.20;;
4096;SDS011;2062;50.694;7.246;2023-07-31T00:05:08;8.20;;;2.17;;
4096;SDS011;2062;50.694;7.246;2023-07-31T00:07:35;8.85;;;2.50;;
4096;SDS011;2062;50.694;7.246;2023-07-31T00:10:02;6.55;;;2.05;;
4096;SDS011;2062;50.694;7.246;2023-07-31T00:12:30;6.37;;;2.10;;
4096;SDS011;2062;50.694;7.246;2023-07-31T00:14:57;7.25;;;2.00;;
4096;SDS011;2062;50.694;7.246;2023-07-31T00:17:24;7.43;;;2.03;;
4096;SDS011;2062;50.694;7.246;2023-07-31T00:19:51;6.05;;;1.73;;
4096;SDS011;2062;50.694;7.246;2023-07-31T00:22:18;6.90;;;2.08;;
4096;SDS011;2062;50.694;7.246;2023-07-31T00:24:44;5.33;;;1.80;;
4096;SDS011;2062;50.694;7.246;2023-07-31T00:27:11;6.03;;;1.70;;
4096;SDS011;2062;50.694;7.246;2023-07-31T00:29:39;8.82;;;1.90;;
4096;SDS011;2062;50.694;7.246;2023-07-31T00:32:06;6.68;;;2.17;;
4096;SDS011;2062;50.694;7.246;2023-07-31T00:34:33;6.10;;;2.08;;
4096;SDS011;2062;50.694;7.246;2023-07-31T00:37:00;5.50;;;1.87;;
4096;SDS011;2062;50.694;7.246;2023-07-31T00:39:27;5.80;;;2.00;;
4096;SDS011;2062;50.694;7.246;2023-07-31T00:41:53;6.25;;;1.90;;
4096;SDS011;2062;50.694;7.246;2023-07-31T00:44:20;6.07;;;2.33;;
4096;SDS011;2062;50.694;7.246;2023-07-31T00:46:48;5.95;;;1.80;;
4096;SDS011;2062;50.694;7.246;2023-07-31T00:49:15;6.83;;;1.90;;
4096;SDS011;2062;50.694;7.246;2023-07-31T00:51:42;5.35;;;2.00;;
4096;SDS011;2062;50.694;7.246;2023-07-31T00:54:09;6.63;;;2.20;;
4096;SDS011;2062;50.694;7.246;2023-07-31T00:56:37;5.22;;;1.73;;
4096;SDS011;2062;50.694;7.246;2023-07-31T00:59:04;5.90;;;1.65;;
4096;SDS011;2062;50.694;7.246;2023-07-31T01:01:31;6.17;;;1.63;;
4096;SDS011;2062;50.694;7.246;2023-07-31T01:03:59;5.68;;;2.00;;
4096;SDS011;2062;50.694;7.246;2023-07-31T01:06:28;5.50;;;1.90;;
4096;SDS011;2062;50.694;7.246;2023-07-31T01:09:11;6.00;;;1.70;;
4096;SDS011;2062;50.694;7.246;2023-07-31T01:11:49;6.57;;;1.88;;
4096;SDS011;2062;50.694;7.246;2023-07-31T01:14:19;6.87;;;1.70;;
4096;SDS011;2062;50.694;7.246;2023-07-31T01:16:46;6.88;;;1.80;;
4096;SDS011;2062;50.694;7.246;2023-07-31T01:19:14;5.15;;;1.90;;
4096;SDS011;2062;50.694;7.246;2023-07-31T01:21:50;5.45;;;1.90;;
4096;SDS011;2062;50.694;7.246;2023-07-31T01:24:47;5.40;;;1.88;;
4096;SDS011;2062;50.694;7.246;2023-07-31T01:27:23;8.03;;;1.97;;
4096;SDS011;2062;50.694;7.246;2023-07-31T01:29:55;6.53;;;1.88;;
4096;SDS011;2062;50.694;7.246;2023-07-31T01:32:27;5.32;;;1.77;;
4096;SDS011;2062;50.694;7.246;2023-07-31T01:34:54;5.07;;;1.70;;
4096;SDS011;2062;50.694;7.246;2023-07-31T01:37:27;6.55;;;1.70;;
4096;SDS011;2062;50.694;7.246;2023-07-31T01:39:55;4.73;;;1.80;;
4096;SDS011;2062;50.694;7.246;2023-07-31T01:42:23;5.47;;;1.83;;
4096;SDS011;2062;50.694;7.246;2023-07-31T01:44:50;6.43;;;2.00;;
4096;SDS011;2062;50.694;7.246;2023-07-31T01:47:16;5.13;;;2.10;;
4096;SDS011;2062;50.694;7.246;2023-07-31T01:49:43;6.72;;;1.92;;
4096;SDS011;2062;50.694;7.246;2023-07-31T01:52:10;6.47;;;1.97;;
4096;SDS011;2062;50.694;7.246;2023-07-31T01:54:37;5.03;;;1.65;;
4096;SDS011;2062;50.694;7.246;2023-07-31T01:57:04;5.18;;;1.75;;
4096;SDS011;2062;50.694;7.246;2023-07-31T01:59:32;5.25;;;1.80;;
4096;SDS011;2062;50.694;7.246;2023-07-31T02:01:59;7.70;;;2.20;;
4096;SDS011;2062;50.694;7.246;2023-07-31T02:04:26;5.83;;;1.90;;
4096;SDS011;2062;50.694;7.246;2023-07-31T02:06:52;5.30;;;1.98;;
4096;SDS011;2062;50.694;7.246;2023-07-31T02:09:19;6.55;;;1.73;;
4096;SDS011;2062;50.694;7.246;2023-07-31T02:11:46;5.68;;;2.00;;
4096;SDS011;2062;50.694;7.246;2023-07-31T02:14:13;9.32;;;2.00;;
4096;SDS011;2062;50.694;7.246;2023-07-31T02:16:41;5.73;;;1.93;;
4096;SDS011;2062;50.694;7.246;2023-07-31T02:19:08;7.10;;;1.92;;
4096;SDS011;2062;50.694;7.246;2023-07-31T02:21:35;5.75;;;2.17;;
4096;SDS011;2062;50.694;7.246;2023-07-31T02:24:02;5.75;;;2.00;;
4096;SDS011;2062;50.694;7.246;2023-07-31T02:26:29;5.63;;;2.08;;
4096;SDS011;2062;50.694;7.246;2023-07-31T02:28:56;6.87;;;2.20;;
4096;SDS011;2062;50.694;7.246;2023-07-31T02:31:22;8.07;;;2.17;;
4096;SDS011;2062;50.694;7.246;2023-07-31T02:33:50;6.03;;;2.10;;
4096;SDS011;2062;50.694;7.246;2023-07-31T02:36:17;6.07;;;2.00;;
4096;SDS011;2062;50.694;7.246;2023-07-31T02:38:44;6.03;;;2.10;;
4096;SDS011;2062;50.694;7.246;2023-07-31T02:41:11;7.20;;;2.17;;
4096;SDS011;2062;50.694;7.246;2023-07-31T02:43:37;6.93;;;2.10;;
4096;SDS011;2062;50.694;7.246;2023-07-31T02:46:04;5.38;;;2.10;;
4096;SDS011;2062;50.694;7.246;2023-07-31T02:48:31;9.07;;;2.42;;
4096;SDS011;2062;50.694;7.246;2023-07-31T02:50:59;7.75;;;2.38;;
4096;SDS011;2062;50.694;7.246;2023-07-31T02:53:26;7.73;;;2.33;;
4096;SDS011;2062;50.694;7.246;2023-07-31T02:55:53;7.10;;;2.00;;
4096;SDS011;2062;50.694;7.246;2023-07-31T02:58:20;6.78;;;2.35;;
4096;SDS011;2062;50.694;7.246;2023-07-31T03:00:46;6.75;;;1.90;;
4096;SDS011;2062;50.694;7.246;2023-07-31T03:03:13;6.93;;;2.08;;
4096;SDS011;2062;50.694;7.246;2023-07-31T03:05:40;7.23;;;2.20;;
4096;SDS011;2062;50.694;7.246;2023-07-31T03:08:08;7.78;;;2.25;;
4096;SDS011;2062;50.694;7.246;2023-07-31T03:10:35;7.03;;;2.10;;
4096;SDS011;2062;50.694;7.246;2023-07-31T03:13:02;5.60;;;1.90;;
4096;SDS011;2062;50.694;7.246;2023-07-31T03:15:28;7.38;;;2.10;;
4096;SDS011;2062;50.694;7.246;2023-07-31T03:17:55;5.73;;;2.00;;
4096;SDS011;2062;50.694;7.246;2023-07-31T03:20:22;11.75;;;2.08;;
4096;SDS011;2062;50.694;7.246;2023-07-31T03:22:49;6.15;;;2.22;;
4096;SDS011;2062;50.694;7.246;2023-07-31T03:25:17;7.05;;;1.98;;
4096;SDS011;2062;50.694;7.246;2023-07-31T03:27:44;7.93;;;2.35;;
4096;SDS011;2062;50.694;7.246;2023-07-31T03:30:10;7.67;;;2.20;;
4096;SDS011;2062;50.694;7.246;2023-07-31T03:32:37;7.78;;;2.20;;
4096;SDS011;2062;50.694;7.246;2023-07-31T03:35:04;7.25;;;2.20;;
4096;SDS011;2062;50.694;7.246;2023-07-31T03:37:32;5.65;;;1.88;;
4096;SDS011;2062;50.694;7.246;2023-07-31T03:39:58;7.25;;;2.20;;
4096;SDS011;2062;50.694;7.246;2023-07-31T03:42:26;7.17;;;2.17;;
4096;SDS011;2062;50.694;7.246;2023-07-31T03:44:53;5.38;;;2.00;;
4096;SDS011;2062;50.694;7.246;2023-07-31T03:47:20;6.38;;;1.90;;
4096;SDS011;2062;50.694;7.246;2023-07-31T03:49:47;6.38;;;1.90;;
4096;SDS011;2062;50.694;7.246;2023-07-31T03:52:14;7.50;;;2.10;;
4096;SDS011;2062;50.694;7.246;2023-07-31T03:54:40;5.73;;;1.90;;
4096;SDS011;2062;50.694;7.246;2023-07-31T03:57:09;7.18;;;2.25;;
4096;SDS011;2062;50.694;7.246;2023-07-31T03:59:37;6.43;;;1.80;;
4096;SDS011;2062;50.694;7.246;2023-07-31T04:02:04;7.78;;;2.22;;
4096;SDS011;2062;50.694;7.246;2023-07-31T04:04:31;7.97;;;2.20;;
4096;SDS011;2062;50.694;7.246;2023-07-31T04:06:58;5.90;;;1.80;;
4096;SDS011;2062;50.694;7.246;2023-07-31T04:09:25;7.78;;;2.20;;
4096;SDS011;2062;50.694;7.246;2023-07-31T04:11:51;6.68;;;2.30;;
4096;SDS011;2062;50.694;7.246;2023-07-31T04:14:18;5.88;;;1.90;;
4096;SDS011;2062;50.694;7.246;2023-07-31T04:16:46;6.25;;;2.08;;
4096;SDS011;2062;50.694;7.246;2023-07-31T04:19:13;4.87;;;1.77;;
4096;SDS011;2062;50.694;7.246;2023-07-31T04:21:41;6.85;;;2.30;;
4096;SDS011;2062;50.694;7.246;2023-07-31T04:24:08;6.55;;;2.30;;
4096;SDS011;2062;50.694;7.246;2023-07-31T04:26:35;6.53;;;2.20;;
4096;SDS011;2062;50.694;7.246;2023-07-31T04:29:02;6.28;;;2.20;;
4096;SDS011;2062;50.694;7.246;2023-07-31T04:31:28;6.03;;;1.70;;
4096;SDS011;2062;50.694;7.246;2023-07-31T04:33:56;6.50;;;2.10;;
4096;SDS011;2062;50.694;7.246;2023-07-31T04:36:23;7.55;;;2.05;;
4096;SDS011;2062;50.694;7.246;2023-07-31T04:38:50;7.60;;;2.30;;
4096;SDS011;2062;50.694;7.246;2023-07-31T04:41:17;7.95;;;2.22;;
4096;SDS011;2062;50.694;7.246;2023-07-31T04:43:43;6.13;;;1.97;;
4096;SDS011;2062;50.694;7.246;2023-07-31T04:46:10;6.13;;;2.33;;
4096;SDS011;2062;50.694;7.246;2023-07-31T04:48:37;6.60;;;2.25;;
4096;SDS011;2062;50.694;7.246;2023-07-31T04:51:05;7.43;;;1.83;;
4096;SDS011;2062;50.694;7.246;2023-07-31T04:53:32;5.57;;;1.98;;
4096;SDS011;2062;50.694;7.246;2023-07-31T04:55:59;6.17;;;2.17;;
4096;SDS011;2062;50.694;7.246;2023-07-31T04:58:25;6.03;;;2.28;;
4096;SDS011;2062;50.694;7.246;2023-07-31T05:00:52;6.80;;;2.00;;
4096;SDS011;2062;50.694;7.246;2023-07-31T05:03:19;5.70;;;1.88;;
4096;SDS011;2062;50.694;7.246;2023-07-31T05:05:46;6.65;;;2.38;;
4096;SDS011;2062;50.694;7.246;2023-07-31T05:08:14;5.97;;;2.10;;
4096;SDS011;2062;50.694;7.246;2023-07-31T05:10:42;5.78;;;1.85;;
4096;SDS011;2062;50.694;7.246;2023-07-31T05:13:09;6.38;;;2.20;;
4096;SDS011;2062;50.694;7.246;2023-07-31T05:15:36;5.32;;;2.10;;
4096;SDS011;2062;50.694;7.246;2023-07-31T05:18:02;7.63;;;2.10;;
4096;SDS011;2062;50.694;7.246;2023-07-31T05:20:29;5.97;;;2.10;;
4096;SDS011;2062;50.694;7.246;2023-07-31T05:22:56;5.68;;;2.03;;
4096;SDS011;2062;50.694;7.246;2023-07-31T05:25:24;7.35;;;2.10;;
4096;SDS011;2062;50.694;7.246;2023-07-31T05:27:51;6.15;;;2.15;;
4096;SDS011;2062;50.694;7.246;2023-07-31T05:30:18;6.47;;;2.28;;
4096;SDS011;2062;50.694;7.246;2023-07-31T05:32:46;6.27;;;2.30;;
4096;SDS011;2062;50.694;7.246;2023-07-31T05:35:13;6.63;;;2.10;;
4096;SDS011;2062;50.694;7.246;2023-07-31T05:37:40;5.68;;;1.95;;
4096;SDS011;2062;50.694;7.246;2023-07-31T05:40:07;5.95;;;2.17;;
4096;SDS011;2062;50.694;7.246;2023-07-31T05:42:35;5.70;;;2.30;;
4096;SDS011;2062;50.694;7.246;2023-07-31T05:45:04;7.07;;;2.10;;
4096;SDS011;2062;50.694;7.246;2023-07-31T05:47:31;6.00;;;2.33;;
4096;SDS011;2062;50.694;7.246;2023-07-31T05:49:58;7.43;;;2.03;;
4096;SDS011;2062;50.694;7.246;2023-07-31T05:52:25;5.47;;;2.05;;
4096;SDS011;2062;50.694;7.246;2023-07-31T05:54:54;5.78;;;2.40;;
4096;SDS011;2062;50.694;7.246;2023-07-31T05:57:20;6.97;;;2.50;;
4096;SDS011;2062;50.694;7.246;2023-07-31T05:59:48;7.25;;;2.20;;
4096;SDS011;2062;50.694;7.246;2023-07-31T06:02:15;7.22;;;2.22;;
4096;SDS011;2062;50.694;7.246;2023-07-31T06:04:42;6.60;;;2.15;;
4096;SDS011;2062;50.694;7.246;2023-07-31T06:07:09;7.82;;;2.40;;
4096;SDS011;2062;50.694;7.246;2023-07-31T06:09:35;6.33;;;2.27;;
4096;SDS011;2062;50.694;7.246;2023-07-31T06:12:02;7.00;;;2.40;;
4096;SDS011;2062;50.694;7.246;2023-07-31T06:14:30;8.38;;;2.38;;
4096;SDS011;2062;50.694;7.246;2023-07-31T06:16:58;8.32;;;2.45;;
4096;SDS011;2062;50.694;7.246;2023-07-31T06:19:25;6.47;;;2.30;;
4096;SDS011;2062;50.694;7.246;2023-07-31T06:21:51;6.50;;;2.00;;
4096;SDS011;2062;50.694;7.246;2023-07-31T06:24:18;6.28;;;2.00;;
4096;SDS011;2062;50.694;7.246;2023-07-31T06:26:45;6.93;;;2.45;;
4096;SDS011;2062;50.694;7.246;2023-07-31T06:29:12;7.03;;;1.85;;
4096;SDS011;2062;50.694;7.246;2023-07-31T06:31:40;7.15;;;2.33;;
4096;SDS011;2062;50.694;7.246;2023-07-31T06:34:08;6.77;;;2.47;;
4096;SDS011;2062;50.694;7.246;2023-07-31T06:36:35;8.75;;;2.60;;
4096;SDS011;2062;50.694;7.246;2023-07-31T06:39:02;6.63;;;2.33;;
4096;SDS011;2062;50.694;7.246;2023-07-31T06:41:29;8.38;;;2.70;;
4096;SDS011;2062;50.694;7.246;2023-07-31T06:43:55;6.88;;;2.22;;
4096;SDS011;2062;50.694;7.246;2023-07-31T06:46:22;6.53;;;2.13;;
4096;SDS011;2062;50.694;7.246;2023-07-31T06:48:49;7.03;;;2.22;;
4096;SDS011;2062;50.694;7.246;2023-07-31T06:51:17;7.20;;;2.80;;
4096;SDS011;2062;50.694;7.246;2023-07-31T06:53:44;7.18;;;2.70;;
4096;SDS011;2062;50.694;7.246;2023-07-31T06:56:11;6.32;;;2.20;;
4096;SDS011;2062;50.694;7.246;2023-07-31T06:58:38;6.47;;;2.13;;
4096;SDS011;2062;50.694;7.246;2023-07-31T07:01:05;6.60;;;2.30;;
4096;SDS011;2062;50.694;7.246;2023-07-31T07:03:32;6.68;;;2.40;;
4096;SDS011;2062;50.694;7.246;2023-07-31T07:05:59;6.20;;;2.03;;
4096;SDS011;2062;50.694;7.246;2023-07-31T07:08:27;6.43;;;2.22;;
4096;SDS011;2062;50.694;7.246;2023-07-31T07:10:54;6.93;;;1.90;;
4096;SDS011;2062;50.694;7.246;2023-07-31T07:13:21;6.28;;;2.35;;
4096;SDS011;2062;50.694;7.246;2023-07-31T07:15:48;7.57;;;2.55;;
4096;SDS011;2062;50.694;7.246;2023-07-31T07:18:15;5.72;;;2.60;;
4096;SDS011;2062;50.694;7.246;2023-07-31T07:20:45;6.88;;;2.22;;
4096;SDS011;2062;50.694;7.246;2023-07-31T07:23:13;6.27;;;2.70;;
4096;SDS011;2062;50.694;7.246;2023-07-31T07:25:41;8.90;;;2.40;;
4096;SDS011;2062;50.694;7.246;2023-07-31T07:28:08;8.90;;;2.67;;
4096;SDS011;2062;50.694;7.246;2023-07-31T07:30:35;6.90;;;2.33;;
4096;SDS011;2062;50.694;7.246;2023-07-31T07:33:01;7.13;;;2.38;;
4096;SDS011;2062;50.694;7.246;2023-07-31T07:35:28;7.20;;;2.97;;
4096;SDS011;2062;50.694;7.246;2023-07-31T07:37:55;7.40;;;2.40;;
4096;SDS011;2062;50.694;7.246;2023-07-31T07:40:22;7.30;;;2.50;;
4096;SDS011;2062;50.694;7.246;2023-07-31T07:42:50;8.38;;;2.80;;
4096;SDS011;2062;50.694;7.246;2023-07-31T07:45:17;7.07;;;2.70;;
4096;SDS011;2062;50.694;7.246;2023-07-31T07:47:44;8.23;;;2.60;;
4096;SDS011;2062;50.694;7.246;2023-07-31T07:50:11;9.40;;;2.60;;
4096;SDS011;2062;50.694;7.246;2023-07-31T07:52:38;5.95;;;2.45;;
4096;SDS011;2062;50.694;7.246;2023-07-31T07:55:05;6.78;;;2.53;;
4096;SDS011;2062;50.694;7.246;2023-07-31T07:57:32;7.43;;;2.67;;
4096;SDS011;2062;50.694;7.246;2023-07-31T08:00:00;8.27;;;2.47;;
4096;SDS011;2062;50.694;7.246;2023-07-31T08:02:27;6.43;;;2.60;;
4096;SDS011;2062;50.694;7.246;2023-07-31T08:04:54;6.30;;;2.67;;
4096;SDS011;2062;50.694;7.246;2023-07-31T08:07:21;6.72;;;2.95;;
4096;SDS011;2062;50.694;7.246;2023-07-31T08:09:47;6.82;;;2.70;;
4096;SDS011;2062;50.694;7.246;2023-07-31T08:12:14;6.20;;;2.50;;
4096;SDS011;2062;50.694;7.246;2023-07-31T08:14:41;7.32;;;2.60;;
4096;SDS011;2062;50.694;7.246;2023-07-31T08:17:09;9.98;;;2.85;;
4096;SDS011;2062;50.694;7.246;2023-07-31T08:19:36;6.68;;;2.30;;
4096;SDS011;2062;50.694;7.246;2023-07-31T08:22:03;7.55;;;2.50;;
4096;SDS011;2062;50.694;7.246;2023-07-31T08:24:30;8.43;;;3.13;;
4096;SDS011;2062;50.694;7.246;2023-07-31T08:26:57;7.25;;;2.60;;
4096;SDS011;2062;50.694;7.246;2023-07-31T08:29:24;6.28;;;2.58;;
4096;SDS011;2062;50.694;7.246;2023-07-31T08:31:51;6.70;;;2.50;;
4096;SDS011;2062;50.694;7.246;2023-07-31T08:34:19;8.00;;;2.90;;
4096;SDS011;2062;50.694;7.246;2023-07-31T08:36:46;7.00;;;2.50;;
4096;SDS011;2062;50.694;7.246;2023-07-31T08:39:13;7.47;;;2.63;;
4096;SDS011;2062;50.694;7.246;2023-07-31T08:41:39;8.43;;;2.80;;
4096;SDS011;2062;50.694;7.246;2023-07-31T08:44:06;7.80;;;2.60;;
4096;SDS011;2062;50.694;7.246;2023-07-31T08:46:33;9.00;;;2.60;;
4096;SDS011;2062;50.694;7.246;2023-07-31T08:49:00;7.20;;;2.80;;
4096;SDS011;2062;50.694;7.246;2023-07-31T08:51:31;7.03;;;2.45;;
4096;SDS011;2062;50.694;7.246;2023-07-31T08:53:59;6.90;;;2.55;;
4096;SDS011;2062;50.694;7.246;2023-07-31T08:56:29;6.32;;;2.50;;
4096;SDS011;2062;50.694;7.246;2023-07-31T08:58:56;8.48;;;2.33;;
4096;SDS011;2062;50.694;7.246;2023-07-31T09:01:25;5.80;;;2.03;;
4096;SDS011;2062;50.694;7.246;2023-07-31T09:03:55;7.20;;;2.33;;
4096;SDS011;2062;50.694;7.246;2023-07-31T09:06:24;5.78;;;2.38;;
4096;SDS011;2062;50.694;7.246;2023-07-31T09:08:56;6.53;;;2.30;;
4096;SDS011;2062;50.694;7.246;2023-07-31T09:11:23;5.75;;;2.30;;
4096;SDS011;2062;50.694;7.246;2023-07-31T09:13:50;7.77;;;2.60;;
4096;SDS011;2062;50.694;7.246;2023-07-31T09:16:18;6.15;;;2.20;;
4096;SDS011;2062;50.694;7.246;2023-07-31T09:21:30;8.32;;;2.20;;
4096;SDS011;2062;50.694;7.246;2023-07-31T09:23:58;5.75;;;2.25;;
4096;SDS011;2062;50.694;7.246;2023-07-31T09:26:31;8.87;;;2.40;;
4096;SDS011;2062;50.694;7.246;2023-07-31T09:28:59;7.75;;;2.33;;
4096;SDS011;2062;50.694;7.246;2023-07-31T09:31:33;7.82;;;2.40;;
4096;SDS011;2062;50.694;7.246;2023-07-31T09:34:06;7.32;;;2.15;;
4096;SDS011;2062;50.694;7.246;2023-07-31T09:36:38;8.15;;;2.25;;
4096;SDS011;2062;50.694;7.246;2023-07-31T09:39:08;6.27;;;1.97;;
4096;SDS011;2062;50.694;7.246;2023-07-31T09:41:36;6.88;;;2.30;;
4096;SDS011;2062;50.694;7.246;2023-07-31T09:44:03;5.30;;;2.10;;
4096;SDS011;2062;50.694;7.246;2023-07-31T09:46:30;5.38;;;1.95;;
4096;SDS011;2062;50.694;7.246;2023-07-31T09:49:07;5.65;;;1.85;;
4096;SDS011;2062;50.694;7.246;2023-07-31T09:51:35;8.97;;;2.17;;
4096;SDS011;2062;50.694;7.246;2023-07-31T09:54:04;5.82;;;2.25;;
4096;SDS011;2062;50.694;7.246;2023-07-31T09:56:41;4.97;;;1.95;;
4096;SDS011;2062;50.694;7.246;2023-07-31T09:59:10;6.88;;;2.38;;
4096;SDS011;2062;50.694;7.246;2023-07-31T10:01:38;6.68;;;2.08;;
4096;SDS011;2062;50.694;7.246;2023-07-31T10:04:06;4.90;;;1.63;;
4096;SDS011;2062;50.694;7.246;2023-07-31T10:06:34;6.07;;;1.92;;
4096;SDS011;2062;50.694;7.246;2023-07-31T10:09:02;7.32;;;2.40;;
4096;SDS011;2062;50.694;7.246;2023-07-31T10:11:32;5.45;;;2.00;;
4096;SDS011;2062;50.694;7.246;2023-07-31T10:14:04;6.75;;;2.10;;
4096;SDS011;2062;50.694;7.246;2023-07-31T10:16:31;5.23;;;2.13;;
4096;SDS011;2062;50.694;7.246;2023-07-31T10:18:59;5.43;;;2.08;;
4096;SDS011;2062;50.694;7.246;2023-07-31T10:21:26;6.15;;;1.92;;
4096;SDS011;2062;50.694;7.246;2023-07-31T10:23:53;6.88;;;2.08;;
4096;SDS011;2062;50.694;7.246;2023-07-31T10:26:21;4.80;;;1.80;;
4096;SDS011;2062;50.694;7.246;2023-07-31T10:28:52;6.10;;;1.93;;
4096;SDS011;2062;50.694;7.246;2023-07-31T10:31:19;5.88;;;2.10;;
4096;SDS011;2062;50.694;7.246;2023-07-31T10:33:47;8.32;;;2.20;;
4096;SDS011;2062;50.694;7.246;2023-07-31T10:36:14;5.70;;;2.00;;
4096;SDS011;2062;50.694;7.246;2023-07-31T10:38:43;5.20;;;1.67;;
4096;SDS011;2062;50.694;7.246;2023-07-31T10:41:10;5.30;;;1.80;;
4096;SDS011;2062;50.694;7.246;2023-07-31T10:43:37;4.95;;;2.00;;
4096;SDS011;2062;50.694;7.246;2023-07-31T10:46:09;5.90;;;1.90;;
4096;SDS011;2062;50.694;7.246;2023-07-31T10:48:38;4.80;;;1.65;;
4096;SDS011;2062;50.694;7.246;2023-07-31T10:51:07;4.82;;;1.70;;
4096;SDS011;2062;50.694;7.246;2023-07-31T10:53:36;6.90;;;1.87;;
4096;SDS011;2062;50.694;7.246;2023-07-31T10:56:03;5.85;;;1.52;;
4096;SDS011;2062;50.694;7.246;2023-07-31T10:58:31;6.30;;;1.85;;
4096;SDS011;2062;50.694;7.246;2023-07-31T11:00:59;5.38;;;1.90;;
4096;SDS011;2062;50.694;7.246;2023-07-31T11:03:41;6.85;;;1.83;;
4096;SDS011;2062;50.694;7.246;2023-07-31T11:06:09;4.50;;;1.70;;
4096;SDS011;2062;50.694;7.246;2023-07-31T11:08:41;4.90;;;1.63;;
4096;SDS011;2062;50.694;7.246;2023-07-31T11:11:09;5.88;;;1.63;;
4096;SDS011;2062;50.694;7.246;2023-07-31T11:13:42;4.38;;;1.60;;
4096;SDS011;2062;50.694;7.246;2023-07-31T11:16:11;4.53;;;1.60;;
4096;SDS011;2062;50.694;7.246;2023-07-31T11:18:39;4.37;;;1.50;;
4096;SDS011;2062;50.694;7.246;2023-07-31T11:21:08;5.00;;;1.55;;
4096;SDS011;2062;50.694;7.246;2023-07-31T11:23:37;5.07;;;1.50;;
4096;SDS011;2062;50.694;7.246;2023-07-31T11:26:05;5.35;;;1.40;;
4096;SDS011;2062;50.694;7.246;2023-07-31T11:28:32;4.88;;;1.58;;
4096;SDS011;2062;50.694;7.246;2023-07-31T11:31:00;4.97;;;1.40;;
4096;SDS011;2062;50.694;7.246;2023-07-31T11:33:28;6.57;;;1.40;;
4096;SDS011;2062;50.694;7.246;2023-07-31T11:35:56;4.03;;;1.30;;
4096;SDS011;2062;50.694;7.246;2023-07-31T11:38:24;5.68;;;1.50;;
4096;SDS011;2062;50.694;7.246;2023-07-31T11:40:52;6.10;;;1.60;;
4096;SDS011;2062;50.694;7.246;2023-07-31T11:43:20;6.30;;;1.60;;
4096;SDS011;2062;50.694;7.246;2023-07-31T11:45:47;4.70;;;1.58;;
4096;SDS011;2062;50.694;7.246;2023-07-31T11:48:21;4.75;;;1.40;;
4096;SDS011;2062;50.694;7.246;2023-07-31T11:50:50;4.63;;;1.50;;
4096;SDS011;2062;50.694;7.246;2023-07-31T11:53:20;5.95;;;1.60;;
4096;SDS011;2062;50.694;7.246;2023-07-31T11:55:51;4.20;;;1.37;;
4096;SDS011;2062;50.694;7.246;2023-07-31T11:58:18;4.63;;;1.50;;
4096;SDS011;2062;50.694;7.246;2023-07-31T12:00:46;4.43;;;1.40;;
4096;SDS011;2062;50.694;7.246;2023-07-31T12:03:13;4.70;;;1.48;;
4096;SDS011;2062;50.694;7.246;2023-07-31T12:05:40;4.68;;;1.20;;
4096;SDS011;2062;50.694;7.246;2023-07-31T12:08:10;4.13;;;1.20;;
4096;SDS011;2062;50.694;7.246;2023-07-31T12:10:39;5.57;;;1.45;;
4096;SDS011;2062;50.694;7.246;2023-07-31T12:13:07;4.63;;;1.35;;
4096;SDS011;2062;50.694;7.246;2023-07-31T12:15:38;3.85;;;1.30;;
4096;SDS011;2062;50.694;7.246;2023-07-31T12:18:07;4.05;;;1.30;;
4096;SDS011;2062;50.694;7.246;2023-07-31T12:20:39;4.70;;;1.10;;
4096;SDS011;2062;50.694;7.246;2023-07-31T12:23:12;3.63;;;1.25;;
4096;SDS011;2062;50.694;7.246;2023-07-31T12:25:41;4.22;;;1.40;;
4096;SDS011;2062;50.694;7.246;2023-07-31T12:28:08;5.20;;;1.70;;
4096;SDS011;2062;50.694;7.246;2023-07-31T12:30:37;4.38;;;1.55;;
4096;SDS011;2062;50.694;7.246;2023-07-31T12:33:06;5.30;;;1.80;;
4096;SDS011;2062;50.694;7.246;2023-07-31T12:35:37;5.53;;;1.98;;
4096;SDS011;2062;50.694;7.246;2023-07-31T12:38:06;5.45;;;2.00;;
4096;SDS011;2062;50.694;7.246;2023-07-31T12:40:35;5.50;;;2.05;;
4096;SDS011;2062;50.694;7.246;2023-07-31T12:43:05;5.95;;;2.08;;
4096;SDS011;2062;50.694;7.246;2023-07-31T12:45:33;6.43;;;2.30;;
4096;SDS011;2062;50.694;7.246;2023-07-31T12:48:00;6.22;;;2.38;;
4096;SDS011;2062;50.694;7.246;2023-07-31T12:50:27;6.85;;;2.88;;
4096;SDS011;2062;50.694;7.246;2023-07-31T12:52:54;7.13;;;2.42;;
4096;SDS011;2062;50.694;7.246;2023-07-31T12:55:21;6.10;;;2.60;;
4096;SDS011;2062;50.694;7.246;2023-07-31T12:57:48;7.10;;;2.87;;
4096;SDS011;2062;50.694;7.246;2023-07-31T13:00:16;7.65;;;2.67;;
4096;SDS011;2062;50.694;7.246;2023-07-31T13:02:44;5.97;;;2.38;;
4096;SDS011;2062;50.694;7.246;2023-07-31T13:05:10;6.40;;;2.70;;
4096;SDS011;2062;50.694;7.246;2023-07-31T13:07:38;5.68;;;2.50;;
4096;SDS011;2062;50.694;7.246;2023-07-31T13:10:05;7.63;;;2.47;;
4096;SDS011;2062;50.694;7.246;2023-07-31T13:12:33;6.50;;;2.83;;
4096;SDS011;2062;50.694;7.246;2023-07-31T13:15:00;5.63;;;2.67;;
4096;SDS011;2062;50.694;7.246;2023-07-31T13:17:28;6.07;;;2.50;;
4096;SDS011;2062;50.694;7.246;2023-07-31T13:19:55;6.57;;;2.85;;
4096;SDS011;2062;50.694;7.246;2023-07-31T13:22:22;6.50;;;2.40;;
4096;SDS011;2062;50.694;7.246;2023-07-31T13:24:48;5.90;;;2.42;;
4096;SDS011;2062;50.694;7.246;2023-07-31T13:27:15;6.22;;;2.50;;
4096;SDS011;2062;50.694;7.246;2023-07-31T13:29:44;6.10;;;2.47;;
4096;SDS011;2062;50.694;7.246;2023-07-31T13:32:11;6.30;;;2.50;;
4096;SDS011;2062;50.694;7.246;2023-07-31T13:34:39;5.80;;;2.57;;
4096;SDS011;2062;50.694;7.246;2023-07-31T13:37:06;6.20;;;2.63;;
4096;SDS011;2062;50.694;7.246;2023-07-31T13:39:34;6.85;;;2.60;;
4096;SDS011;2062;50.694;7.246;2023-07-31T13:42:01;6.45;;;2.60;;
4096;SDS011;2062;50.694;7.246;2023-07-31T13:44:31;6.05;;;2.40;;
4096;SDS011;2062;50.694;7.246;2023-07-31T13:46:58;4.87;;;1.90;;
4096;SDS011;2062;50.694;7.246;2023-07-31T13:49:25;8.18;;;2.20;;
4096;SDS011;2062;50.694;7.246;2023-07-31T13:51:53;5.78;;;1.90;;
4096;SDS011;2062;50.694;7.246;2023-07-31T13:54:20;5.18;;;1.73;;
4096;SDS011;2062;50.694;7.246;2023-07-31T13:56:47;4.68;;;1.75;;
4096;SDS011;2062;50.694;7.246;2023-07-31T13:59:13;4.70;;;1.80;;
4096;SDS011;2062;50.694;7.246;2023-07-31T14:01:41;5.03;;;1.58;;
4096;SDS011;2062;50.694;7.246;2023-07-31T14:04:08;4.15;;;1.60;;
4096;SDS011;2062;50.694;7.246;2023-07-31T14:06:35;4.95;;;1.88;;
4096;SDS011;2062;50.694;7.246;2023-07-31T14:09:04;4.50;;;1.85;;
4096;SDS011;2062;50.694;7.246;2023-07-31T14:11:31;5.23;;;1.90;;
4096;SDS011;2062;50.694;7.246;2023-07-31T14:13:58;5.75;;;1.90;;
4096;SDS011;2062;50.694;7.246;2023-07-31T14:16:26;4.70;;;1.90;;
4096;SDS011;2062;50.694;7.246;2023-07-31T14:18:53;5.75;;;1.55;;
4096;SDS011;2062;50.694;7.246;2023-07-31T14:21:20;5.13;;;1.90;;
4096;SDS011;2062;50.694;7.246;2023-07-31T14:23:47;4.87;;;1.50;;
4096;SDS011;2062;50.694;7.246;2023-07-31T14:26:15;4.75;;;1.85;;
4096;SDS011;2062;50.694;7.246;2023-07-31T14:28:42;6.38;;;2.05;;
4096;SDS011;2062;50.694;7.246;2023-07-31T14:31:08;3.97;;;1.52;;
4096;SDS011;2062;50.694;7.246;2023-07-31T14:33:35;4.40;;;1.52;;
4096;SDS011;2062;50.694;7.246;2023-07-31T14:36:02;4.10;;;1.37;;
4096;SDS011;2062;50.694;7.246;2023-07-31T14:38:29;4.63;;;1.55;;
4096;SDS011;2062;50.694;7.246;2023-07-31T14:40:56;4.53;;;1.50;;
4096;SDS011;2062;50.694;7.246;2023-07-31T14:43:24;4.60;;;1.60;;
4096;SDS011;2062;50.694;7.246;2023-07-31T14:45:51;4.35;;;1.40;;
4096;SDS011;2062;50.694;7.246;2023-07-31T14:48:18;3.87;;;1.50;;
4096;SDS011;2062;50.694;7.246;2023-07-31T14:50:45;4.93;;;1.60;;
4096;SDS011;2062;50.694;7.246;2023-07-31T14:53:12;4.65;;;1.42;;
4096;SDS011;2062;50.694;7.246;2023-07-31T14:55:38;4.35;;;1.67;;
4096;SDS011;2062;50.694;7.246;2023-07-31T14:58:05;5.88;;;1.50;;
4096;SDS011;2062;50.694;7.246;2023-07-31T15:00:33;4.30;;;1.40;;
4096;SDS011;2062;50.694;7.246;2023-07-31T15:03:00;4.93;;;1.48;;
4096;SDS011;2062;50.694;7.246;2023-07-31T15:05:27;5.00;;;1.60;;
4096;SDS011;2062;50.694;7.246;2023-07-31T15:07:54;4.45;;;1.50;;
4096;SDS011;2062;50.694;7.246;2023-07-31T15:10:21;4.13;;;1.42;;
4096;SDS011;2062;50.694;7.246;2023-07-31T15:12:48;3.90;;;1.40;;
4096;SDS011;2062;50.694;7.246;2023-07-31T15:15:15;5.30;;;1.70;;
4096;SDS011;2062;50.694;7.246;2023-07-31T15:17:43;5.03;;;1.60;;
4096;SDS011;2062;50.694;7.246;2023-07-31T15:20:10;4.80;;;1.35;;